Race profile

Barcelona
Barcelona ESP
14 Feb 2016
Road
Half Mara
Record quality course
Men: -97.24 sec (-4.60 sec/km)
Women: -89.22 sec (-4.22 sec/km)
Men: 412
Women: 424
Barcelona

Results (men)

Finished Time Flags Given name Surname Alternate name Citizenship Birth date Prize money Actions
1 1:02:54 Vincent Kipruto Limo KEN 13 Sep 1987
2 1:02:55 Daniele Meucci ITA 07 Oct 1985
3 1:02:57 Abdi Fufa Nigassa ETH 1994
4 1:03:01 Samwel Kibiwot KEN
5 1:03:48 Josphat Kiprono Menjo KEN 19 Aug 1979
6 1:04:16 Valentin Pfeil AUT 17 Jul 1988
7 1:04:17 Julian Flügel GER 18 Apr 1986
8 1:04:19 Mustafa Mohamed SWE 01 Mar 1979
9 1:04:20 Felix Chemonges UGA 1995
10 1:04:21 Christian Kreienbühl SUI 06 Jun 1981
11 1:04:51 Djamel Bachiri FRA 22 May 1977
12 1:04:53 Elicky Masse Kipchoge KEN 1983
13 1:05:02 Romain Courcieres FRA 23 Mar 1987
14 1:05:10 Sebastian Reinwand GER 07 Aug 1987
15 1:05:23 Steffen Uliczka GER 17 Jul 1984
16 1:05:32 Hans-Kristian Fløystad NOR 03 Apr 1989
17 1:05:37 Simon Stützel GER 28 Nov 1986
18 1:05:38 Andrew Douglas SCO 19 Dec 1986
19 1:05:46 Richard Weir ENG 07 Aug 1984
20 1:06:13 Mark Hanrahan IRL 07 Mar 1985
21 1:06:22 James Manyur Kipkoech KEN 25 Feb 1980
22 1:06:25 Andreas Kempf SUI 16 May 1988
24 1:06:40 Paul Schmidt GER 17 Aug 1985
26 1:06:44 Ruben Palomeque Barrera ESP 14 Aug 1980
34 1:07:40 Andreas Ahwall SWE 19 Oct 1989
38 1:08:47 Habib Mosbah ALG 08 Mar 1979
39 1:08:48 Neil Berry AUS 25 Jan 1990
40 1:09:02 Simone Gariboldi ITA 16 Jul 1987
45 1:09:20 Marc Roig Tio ESP 08 Apr 1984
52 1:10:18 Andreas Straßner GER 23 Mar 1979
54 1:10:22 Hannes Rungger ITA 01 Jan 1982

Results (women)

Finished Time Flags Given name Surname Alternate name Citizenship Birth date Prize money Actions
1 1:09:19 Florence Chebet Kiplagat KEN 27 Feb 1987
2 1:10:50 Isabella Andersson Amoro SWE 12 Nov 1980
3 1:10:58 Jessica Augusto POR 08 Nov 1981
4 1:11:17 Anja Scherl Schneider GER 12 Apr 1986
5 1:12:33 Franziska Reng GER 22 May 1996
6 1:12:55 Katharina Heinig GER 22 Aug 1989
7 1:13:01 Laila Soufyane ITA 04 Aug 1983
8 1:13:16 Marta Esteban Poveda ESP 06 Nov 1982
9 1:14:03 Anna Hahner GER 20 Nov 1989
10 1:14:20 Marisa Casaneuva Cabrero ESP 04 Feb 1981
11 1:14:28 Susan Partridge SCO 04 Jan 1980
12 1:15:01 Runa-Skrove Falch NOR 23 Jun 1990
13 1:15:17 Cecilia Norrbom SWE 28 Jan 1988
14 1:15:18 Claire McCarthy Gibbons IRL 29 Jun 1976
15 1:16:09 Ilona Marhele LAT 05 Apr 1986
16 1:16:14 Laura Manninen Markovaara FIN 18 Apr 1973
17 1:16:19 Rachel Felton ENG 26 Jun 1979
18 1:17:18 Charlotte Karlsson SWE 22 Jul 1982
20 1:19:30 Susanne Rüegger SUI 28 Aug 1984